sensor_id;sensor_type;location;lat;lon;timestamp;P1;durP1;ratioP1;P2;durP2;ratioP2
11422;SDS011;5768;51.476;7.210;2023-07-24T00:03:06;4.18;;;2.83;;
11422;SDS011;5768;51.476;7.210;2023-07-24T00:08:08;5.80;;;3.55;;
11422;SDS011;5768;51.476;7.210;2023-07-24T00:13:12;4.53;;;3.10;;
11422;SDS011;5768;51.476;7.210;2023-07-24T00:18:14;3.60;;;3.30;;
11422;SDS011;5768;51.476;7.210;2023-07-24T00:23:16;3.60;;;3.30;;
11422;SDS011;5768;51.476;7.210;2023-07-24T00:28:20;5.05;;;3.97;;
11422;SDS011;5768;51.476;7.210;2023-07-24T00:33:22;4.07;;;3.33;;
11422;SDS011;5768;51.476;7.210;2023-07-24T00:38:24;5.85;;;3.85;;
11422;SDS011;5768;51.476;7.210;2023-07-24T00:43:28;4.15;;;3.10;;
11422;SDS011;5768;51.476;7.210;2023-07-24T00:48:30;6.25;;;3.65;;
11422;SDS011;5768;51.476;7.210;2023-07-24T00:53:32;6.28;;;3.58;;
11422;SDS011;5768;51.476;7.210;2023-07-24T00:58:37;4.22;;;3.05;;
11422;SDS011;5768;51.476;7.210;2023-07-24T01:03:39;3.92;;;3.28;;
11422;SDS011;5768;51.476;7.210;2023-07-24T01:08:43;3.72;;;3.42;;
11422;SDS011;5768;51.476;7.210;2023-07-24T01:13:49;5.28;;;3.58;;
11422;SDS011;5768;51.476;7.210;2023-07-24T01:18:58;4.25;;;3.70;;
11422;SDS011;5768;51.476;7.210;2023-07-24T01:24:14;4.93;;;3.78;;
11422;SDS011;5768;51.476;7.210;2023-07-24T01:29:33;4.43;;;3.55;;
11422;SDS011;5768;51.476;7.210;2023-07-24T01:34:35;6.60;;;4.07;;
11422;SDS011;5768;51.476;7.210;2023-07-24T01:39:38;4.45;;;3.47;;
11422;SDS011;5768;51.476;7.210;2023-07-24T01:44:44;4.38;;;3.97;;
11422;SDS011;5768;51.476;7.210;2023-07-24T01:49:52;3.92;;;3.55;;
11422;SDS011;5768;51.476;7.210;2023-07-24T01:54:54;4.10;;;3.70;;
11422;SDS011;5768;51.476;7.210;2023-07-24T01:59:58;4.95;;;4.07;;
11422;SDS011;5768;51.476;7.210;2023-07-24T02:05:00;5.15;;;4.07;;
11422;SDS011;5768;51.476;7.210;2023-07-24T02:10:02;4.30;;;3.90;;
11422;SDS011;5768;51.476;7.210;2023-07-24T02:15:07;6.90;;;3.80;;
11422;SDS011;5768;51.476;7.210;2023-07-24T02:20:10;5.25;;;3.83;;
11422;SDS011;5768;51.476;7.210;2023-07-24T02:25:12;3.95;;;3.60;;
11422;SDS011;5768;51.476;7.210;2023-07-24T02:30:16;5.07;;;4.20;;
11422;SDS011;5768;51.476;7.210;2023-07-24T02:35:18;4.72;;;4.03;;
11422;SDS011;5768;51.476;7.210;2023-07-24T02:40:21;4.43;;;4.00;;
11422;SDS011;5768;51.476;7.210;2023-07-24T02:45:24;4.25;;;3.88;;
11422;SDS011;5768;51.476;7.210;2023-07-24T02:50:27;4.28;;;3.88;;
11422;SDS011;5768;51.476;7.210;2023-07-24T02:55:29;4.88;;;4.18;;
11422;SDS011;5768;51.476;7.210;2023-07-24T03:00:33;4.25;;;3.80;;
11422;SDS011;5768;51.476;7.210;2023-07-24T03:05:35;4.32;;;3.90;;
11422;SDS011;5768;51.476;7.210;2023-07-24T03:10:39;4.93;;;3.78;;
11422;SDS011;5768;51.476;7.210;2023-07-24T03:15:50;4.70;;;3.90;;
11422;SDS011;5768;51.476;7.210;2023-07-24T03:20:56;5.75;;;3.90;;
11422;SDS011;5768;51.476;7.210;2023-07-24T03:25:59;4.85;;;4.40;;
11422;SDS011;5768;51.476;7.210;2023-07-24T03:31:03;6.03;;;4.18;;
11422;SDS011;5768;51.476;7.210;2023-07-24T03:36:05;5.70;;;4.60;;
11422;SDS011;5768;51.476;7.210;2023-07-24T03:41:07;6.70;;;4.63;;
11422;SDS011;5768;51.476;7.210;2023-07-24T03:46:11;6.55;;;4.30;;
11422;SDS011;5768;51.476;7.210;2023-07-24T03:51:13;5.65;;;4.53;;
11422;SDS011;5768;51.476;7.210;2023-07-24T03:56:15;5.03;;;4.53;;
11422;SDS011;5768;51.476;7.210;2023-07-24T04:01:20;8.07;;;4.72;;
11422;SDS011;5768;51.476;7.210;2023-07-24T04:06:22;5.20;;;4.70;;
11422;SDS011;5768;51.476;7.210;2023-07-24T04:11:25;6.50;;;4.57;;
11422;SDS011;5768;51.476;7.210;2023-07-24T04:16:28;7.13;;;4.88;;
11422;SDS011;5768;51.476;7.210;2023-07-24T04:21:30;6.07;;;4.70;;
11422;SDS011;5768;51.476;7.210;2023-07-24T04:26:32;5.13;;;4.57;;
11422;SDS011;5768;51.476;7.210;2023-07-24T04:31:36;5.10;;;4.38;;
11422;SDS011;5768;51.476;7.210;2023-07-24T04:36:38;4.43;;;3.95;;
11422;SDS011;5768;51.476;7.210;2023-07-24T04:41:40;7.10;;;4.40;;
11422;SDS011;5768;51.476;7.210;2023-07-24T04:46:44;5.03;;;4.53;;
11422;SDS011;5768;51.476;7.210;2023-07-24T04:51:46;4.93;;;4.13;;
11422;SDS011;5768;51.476;7.210;2023-07-24T04:56:48;6.47;;;4.30;;
11422;SDS011;5768;51.476;7.210;2023-07-24T05:01:52;5.07;;;4.50;;
11422;SDS011;5768;51.476;7.210;2023-07-24T05:06:54;6.32;;;4.38;;
11422;SDS011;5768;51.476;7.210;2023-07-24T05:11:56;5.00;;;4.38;;
11422;SDS011;5768;51.476;7.210;2023-07-24T05:17:00;8.00;;;4.32;;
11422;SDS011;5768;51.476;7.210;2023-07-24T05:22:02;6.10;;;4.63;;
11422;SDS011;5768;51.476;7.210;2023-07-24T05:27:05;6.80;;;4.60;;
11422;SDS011;5768;51.476;7.210;2023-07-24T05:32:09;4.88;;;3.78;;
11422;SDS011;5768;51.476;7.210;2023-07-24T05:37:11;7.35;;;4.30;;
11422;SDS011;5768;51.476;7.210;2023-07-24T05:42:13;6.70;;;4.63;;
11422;SDS011;5768;51.476;7.210;2023-07-24T05:47:17;5.30;;;3.78;;
11422;SDS011;5768;51.476;7.210;2023-07-24T05:52:19;5.78;;;4.20;;
11422;SDS011;5768;51.476;7.210;2023-07-24T05:57:22;5.65;;;4.47;;
11422;SDS011;5768;51.476;7.210;2023-07-24T06:02:25;6.78;;;4.22;;
11422;SDS011;5768;51.476;7.210;2023-07-24T06:07:27;6.55;;;4.25;;
11422;SDS011;5768;51.476;7.210;2023-07-24T06:12:30;5.68;;;4.20;;
11422;SDS011;5768;51.476;7.210;2023-07-24T06:17:33;7.13;;;4.18;;
11422;SDS011;5768;51.476;7.210;2023-07-24T06:22:35;5.97;;;4.80;;
11422;SDS011;5768;51.476;7.210;2023-07-24T06:27:38;5.90;;;4.28;;
11422;SDS011;5768;51.476;7.210;2023-07-24T06:32:41;6.97;;;4.68;;
11422;SDS011;5768;51.476;7.210;2023-07-24T06:37:44;4.60;;;4.15;;
11422;SDS011;5768;51.476;7.210;2023-07-24T06:42:46;6.80;;;4.28;;
11422;SDS011;5768;51.476;7.210;2023-07-24T06:47:50;6.03;;;4.40;;
11422;SDS011;5768;51.476;7.210;2023-07-24T06:52:52;5.72;;;4.25;;
11422;SDS011;5768;51.476;7.210;2023-07-24T06:57:55;6.53;;;4.38;;
11422;SDS011;5768;51.476;7.210;2023-07-24T07:02:58;5.43;;;4.22;;
11422;SDS011;5768;51.476;7.210;2023-07-24T07:08:01;4.82;;;3.78;;
11422;SDS011;5768;51.476;7.210;2023-07-24T07:13:04;5.00;;;3.97;;
11422;SDS011;5768;51.476;7.210;2023-07-24T07:18:07;6.15;;;3.78;;
11422;SDS011;5768;51.476;7.210;2023-07-24T07:23:09;5.70;;;4.00;;
11422;SDS011;5768;51.476;7.210;2023-07-24T07:28:12;5.10;;;3.97;;
11422;SDS011;5768;51.476;7.210;2023-07-24T07:33:16;5.03;;;3.63;;
11422;SDS011;5768;51.476;7.210;2023-07-24T07:38:18;5.10;;;4.00;;
11422;SDS011;5768;51.476;7.210;2023-07-24T07:43:22;4.95;;;3.88;;
11422;SDS011;5768;51.476;7.210;2023-07-24T07:48:26;6.85;;;3.60;;
11422;SDS011;5768;51.476;7.210;2023-07-24T07:53:28;4.45;;;3.95;;
11422;SDS011;5768;51.476;7.210;2023-07-24T07:58:31;5.60;;;3.83;;
11422;SDS011;5768;51.476;7.210;2023-07-24T08:03:35;4.65;;;3.80;;
11422;SDS011;5768;51.476;7.210;2023-07-24T08:08:38;4.15;;;3.65;;
11422;SDS011;5768;51.476;7.210;2023-07-24T08:13:40;3.53;;;3.20;;
11422;SDS011;5768;51.476;7.210;2023-07-24T08:18:44;3.42;;;2.70;;
11422;SDS011;5768;51.476;7.210;2023-07-24T08:23:48;5.63;;;3.50;;
11422;SDS011;5768;51.476;7.210;2023-07-24T08:28:50;3.08;;;2.67;;
11422;SDS011;5768;51.476;7.210;2023-07-24T08:33:54;2.97;;;2.67;;
11422;SDS011;5768;51.476;7.210;2023-07-24T08:38:57;3.90;;;2.72;;
11422;SDS011;5768;51.476;7.210;2023-07-24T08:43:59;5.38;;;2.78;;
11422;SDS011;5768;51.476;7.210;2023-07-24T08:49:04;4.28;;;2.80;;
11422;SDS011;5768;51.476;7.210;2023-07-24T08:54:07;3.72;;;2.80;;
11422;SDS011;5768;51.476;7.210;2023-07-24T08:59:10;4.15;;;2.95;;
11422;SDS011;5768;51.476;7.210;2023-07-24T09:04:14;3.28;;;2.83;;
11422;SDS011;5768;51.476;7.210;2023-07-24T09:09:16;3.80;;;3.05;;
11422;SDS011;5768;51.476;7.210;2023-07-24T09:14:22;3.55;;;2.65;;
11422;SDS011;5768;51.476;7.210;2023-07-24T09:19:26;3.92;;;3.30;;
11422;SDS011;5768;51.476;7.210;2023-07-24T09:24:29;3.53;;;3.20;;
11422;SDS011;5768;51.476;7.210;2023-07-24T09:29:31;2.88;;;2.60;;
11422;SDS011;5768;51.476;7.210;2023-07-24T09:34:41;5.60;;;2.60;;
11422;SDS011;5768;51.476;7.210;2023-07-24T09:39:45;4.93;;;2.95;;
11422;SDS011;5768;51.476;7.210;2023-07-24T09:44:48;3.78;;;2.90;;
11422;SDS011;5768;51.476;7.210;2023-07-24T09:49:52;3.72;;;3.30;;
11422;SDS011;5768;51.476;7.210;2023-07-24T09:54:55;4.20;;;3.17;;
11422;SDS011;5768;51.476;7.210;2023-07-24T10:00:07;3.40;;;3.10;;
11422;SDS011;5768;51.476;7.210;2023-07-24T10:05:12;3.35;;;2.78;;
11422;SDS011;5768;51.476;7.210;2023-07-24T10:10:15;3.65;;;3.17;;
11422;SDS011;5768;51.476;7.210;2023-07-24T10:15:18;3.35;;;3.05;;
11422;SDS011;5768;51.476;7.210;2023-07-24T10:20:22;6.55;;;3.53;;
11422;SDS011;5768;51.476;7.210;2023-07-24T10:25:28;4.78;;;3.30;;
11422;SDS011;5768;51.476;7.210;2023-07-24T10:30:32;4.15;;;3.08;;
11422;SDS011;5768;51.476;7.210;2023-07-24T10:35:42;3.35;;;2.85;;
11422;SDS011;5768;51.476;7.210;2023-07-24T10:40:47;3.20;;;2.80;;
11422;SDS011;5768;51.476;7.210;2023-07-24T10:45:51;4.55;;;3.28;;
11422;SDS011;5768;51.476;7.210;2023-07-24T10:50:56;5.22;;;3.17;;
11422;SDS011;5768;51.476;7.210;2023-07-24T10:55:59;3.30;;;3.00;;
11422;SDS011;5768;51.476;7.210;2023-07-24T11:01:03;3.60;;;3.22;;
11422;SDS011;5768;51.476;7.210;2023-07-24T11:06:10;4.85;;;3.53;;
11422;SDS011;5768;51.476;7.210;2023-07-24T11:11:15;4.85;;;3.13;;
11422;SDS011;5768;51.476;7.210;2023-07-24T11:16:18;5.95;;;3.55;;
11422;SDS011;5768;51.476;7.210;2023-07-24T11:21:21;5.13;;;3.85;;
11422;SDS011;5768;51.476;7.210;2023-07-24T11:26:25;4.55;;;3.88;;
11422;SDS011;5768;51.476;7.210;2023-07-24T11:31:35;4.20;;;3.70;;
11422;SDS011;5768;51.476;7.210;2023-07-24T11:36:40;3.90;;;3.60;;
11422;SDS011;5768;51.476;7.210;2023-07-24T11:41:43;3.95;;;3.60;;
11422;SDS011;5768;51.476;7.210;2023-07-24T11:46:45;3.92;;;3.53;;
11422;SDS011;5768;51.476;7.210;2023-07-24T11:51:49;4.70;;;4.05;;
11422;SDS011;5768;51.476;7.210;2023-07-24T11:56:51;4.43;;;3.42;;
11422;SDS011;5768;51.476;7.210;2023-07-24T12:01:54;4.97;;;3.83;;
11422;SDS011;5768;51.476;7.210;2023-07-24T12:06:57;6.07;;;4.10;;
11422;SDS011;5768;51.476;7.210;2023-07-24T12:12:00;0.38;;;0.38;;
11422;SDS011;5768;51.476;7.210;2023-07-24T12:17:06;3.38;;;2.08;;
11422;SDS011;5768;51.476;7.210;2023-07-24T12:22:14;2.83;;;2.00;;
11422;SDS011;5768;51.476;7.210;2023-07-24T12:27:16;4.32;;;1.85;;
11422;SDS011;5768;51.476;7.210;2023-07-24T12:32:18;1.88;;;1.50;;
11422;SDS011;5768;51.476;7.210;2023-07-24T12:37:24;2.05;;;1.52;;
11422;SDS011;5768;51.476;7.210;2023-07-24T12:42:26;3.08;;;1.70;;
11422;SDS011;5768;51.476;7.210;2023-07-24T12:47:29;2.88;;;1.60;;
11422;SDS011;5768;51.476;7.210;2023-07-24T12:52:33;2.53;;;1.40;;
11422;SDS011;5768;51.476;7.210;2023-07-24T12:57:35;1.77;;;1.30;;
11422;SDS011;5768;51.476;7.210;2023-07-24T13:02:39;2.78;;;1.20;;
11422;SDS011;5768;51.476;7.210;2023-07-24T13:07:42;1.52;;;1.42;;
11422;SDS011;5768;51.476;7.210;2023-07-24T13:12:48;2.10;;;1.40;;
11422;SDS011;5768;51.476;7.210;2023-07-24T13:17:50;1.50;;;1.40;;
11422;SDS011;5768;51.476;7.210;2023-07-24T13:22:54;2.05;;;1.23;;
11422;SDS011;5768;51.476;7.210;2023-07-24T13:27:56;2.25;;;1.38;;
11422;SDS011;5768;51.476;7.210;2023-07-24T13:32:59;1.92;;;1.60;;
11422;SDS011;5768;51.476;7.210;2023-07-24T13:38:02;1.92;;;1.77;;
11422;SDS011;5768;51.476;7.210;2023-07-24T13:43:08;1.80;;;1.70;;
11422;SDS011;5768;51.476;7.210;2023-07-24T13:48:10;2.17;;;1.90;;
11422;SDS011;5768;51.476;7.210;2023-07-24T13:53:14;2.00;;;1.83;;
11422;SDS011;5768;51.476;7.210;2023-07-24T13:58:16;1.70;;;1.60;;
11422;SDS011;5768;51.476;7.210;2023-07-24T14:03:18;1.73;;;1.60;;
11422;SDS011;5768;51.476;7.210;2023-07-24T14:08:22;2.03;;;1.70;;
11422;SDS011;5768;51.476;7.210;2023-07-24T14:13:24;2.80;;;1.83;;
11422;SDS011;5768;51.476;7.210;2023-07-24T14:18:26;1.90;;;1.80;;
11422;SDS011;5768;51.476;7.210;2023-07-24T14:23:30;1.83;;;1.73;;
11422;SDS011;5768;51.476;7.210;2023-07-24T14:28:32;1.80;;;1.70;;
11422;SDS011;5768;51.476;7.210;2023-07-24T14:33:34;1.80;;;1.70;;
11422;SDS011;5768;51.476;7.210;2023-07-24T14:38:38;2.35;;;1.90;;
11422;SDS011;5768;51.476;7.210;2023-07-24T14:43:40;2.00;;;1.90;;
11422;SDS011;5768;51.476;7.210;2023-07-24T14:48:42;2.50;;;1.83;;
11422;SDS011;5768;51.476;7.210;2023-07-24T14:53:46;3.20;;;2.17;;
11422;SDS011;5768;51.476;7.210;2023-07-24T14:58:48;2.50;;;2.30;;
11422;SDS011;5768;51.476;7.210;2023-07-24T15:03:50;3.67;;;2.53;;
11422;SDS011;5768;51.476;7.210;2023-07-24T15:08:56;4.95;;;2.75;;
11422;SDS011;5768;51.476;7.210;2023-07-24T15:13:59;4.00;;;2.97;;
11422;SDS011;5768;51.476;7.210;2023-07-24T15:19:01;3.30;;;2.83;;
11422;SDS011;5768;51.476;7.210;2023-07-24T15:24:07;3.78;;;2.95;;
11422;SDS011;5768;51.476;7.210;2023-07-24T15:29:09;4.60;;;2.80;;
11422;SDS011;5768;51.476;7.210;2023-07-24T15:34:12;2.75;;;2.50;;
11422;SDS011;5768;51.476;7.210;2023-07-24T15:39:15;2.42;;;2.22;;
11422;SDS011;5768;51.476;7.210;2023-07-24T15:44:17;3.30;;;2.40;;
11422;SDS011;5768;51.476;7.210;2023-07-24T15:49:20;2.03;;;1.65;;
11422;SDS011;5768;51.476;7.210;2023-07-24T15:54:24;2.65;;;2.08;;
11422;SDS011;5768;51.476;7.210;2023-07-24T15:59:26;2.38;;;2.13;;
11422;SDS011;5768;51.476;7.210;2023-07-24T16:04:28;2.60;;;2.40;;
11422;SDS011;5768;51.476;7.210;2023-07-24T16:09:32;2.45;;;2.17;;
11422;SDS011;5768;51.476;7.210;2023-07-24T16:14:34;2.78;;;2.58;;
11422;SDS011;5768;51.476;7.210;2023-07-24T16:19:36;3.03;;;2.80;;
11422;SDS011;5768;51.476;7.210;2023-07-24T16:24:40;3.30;;;3.00;;
11422;SDS011;5768;51.476;7.210;2023-07-24T16:29:42;4.57;;;3.50;;
11422;SDS011;5768;51.476;7.210;2023-07-24T16:34:45;3.30;;;3.10;;
11422;SDS011;5768;51.476;7.210;2023-07-24T16:39:48;4.45;;;4.05;;
11422;SDS011;5768;51.476;7.210;2023-07-24T16:44:50;5.28;;;4.40;;
11422;SDS011;5768;51.476;7.210;2023-07-24T16:49:52;4.32;;;3.88;;
11422;SDS011;5768;51.476;7.210;2023-07-24T16:54:56;4.20;;;3.80;;
11422;SDS011;5768;51.476;7.210;2023-07-24T16:59:58;4.03;;;3.63;;
11422;SDS011;5768;51.476;7.210;2023-07-24T17:05:00;4.22;;;3.65;;
11422;SDS011;5768;51.476;7.210;2023-07-24T17:10:05;3.83;;;3.33;;
11422;SDS011;5768;51.476;7.210;2023-07-24T17:15:09;4.05;;;3.70;;
11422;SDS011;5768;51.476;7.210;2023-07-24T17:20:12;4.47;;;3.05;;
11422;SDS011;5768;51.476;7.210;2023-07-24T17:25:15;3.28;;;2.97;;
11422;SDS011;5768;51.476;7.210;2023-07-24T17:30:17;4.07;;;3.15;;
11422;SDS011;5768;51.476;7.210;2023-07-24T17:35:20;3.63;;;3.33;;
11422;SDS011;5768;51.476;7.210;2023-07-24T17:40:24;5.38;;;3.22;;
11422;SDS011;5768;51.476;7.210;2023-07-24T17:45:26;5.32;;;2.75;;
11422;SDS011;5768;51.476;7.210;2023-07-24T17:50:29;3.97;;;3.22;;
11422;SDS011;5768;51.476;7.210;2023-07-24T17:55:32;3.72;;;3.35;;
11422;SDS011;5768;51.476;7.210;2023-07-24T18:00:34;4.10;;;3.80;;
11422;SDS011;5768;51.476;7.210;2023-07-24T18:05:40;5.72;;;3.80;;
11422;SDS011;5768;51.476;7.210;2023-07-24T18:10:44;4.13;;;3.72;;
11422;SDS011;5768;51.476;7.210;2023-07-24T18:15:47;5.78;;;4.05;;
11422;SDS011;5768;51.476;7.210;2023-07-24T18:20:49;8.10;;;4.82;;
11422;SDS011;5768;51.476;7.210;2023-07-24T18:25:53;5.80;;;4.15;;
11422;SDS011;5768;51.476;7.210;2023-07-24T18:30:55;5.10;;;3.45;;
11422;SDS011;5768;51.476;7.210;2023-07-24T18:35:57;5.85;;;3.30;;
11422;SDS011;5768;51.476;7.210;2023-07-24T18:41:01;3.88;;;3.08;;
11422;SDS011;5768;51.476;7.210;2023-07-24T18:46:03;4.82;;;3.08;;
11422;SDS011;5768;51.476;7.210;2023-07-24T18:51:06;3.75;;;3.22;;
11422;SDS011;5768;51.476;7.210;2023-07-24T18:56:10;3.45;;;3.15;;
11422;SDS011;5768;51.476;7.210;2023-07-24T19:01:13;4.57;;;3.08;;
11422;SDS011;5768;51.476;7.210;2023-07-24T19:06:15;6.72;;;3.53;;
11422;SDS011;5768;51.476;7.210;2023-07-24T19:11:22;4.15;;;3.45;;
11422;SDS011;5768;51.476;7.210;2023-07-24T19:16:26;3.42;;;3.13;;
11422;SDS011;5768;51.476;7.210;2023-07-24T19:21:29;4.60;;;3.65;;
11422;SDS011;5768;51.476;7.210;2023-07-24T19:26:33;4.82;;;4.10;;
11422;SDS011;5768;51.476;7.210;2023-07-24T19:31:35;5.63;;;4.07;;
11422;SDS011;5768;51.476;7.210;2023-07-24T19:36:37;7.70;;;4.63;;
11422;SDS011;5768;51.476;7.210;2023-07-24T19:41:41;8.98;;;5.25;;
11422;SDS011;5768;51.476;7.210;2023-07-24T19:46:43;8.35;;;5.18;;
11422;SDS011;5768;51.476;7.210;2023-07-24T19:51:45;5.90;;;5.00;;
11422;SDS011;5768;51.476;7.210;2023-07-24T19:56:49;7.82;;;5.43;;
11422;SDS011;5768;51.476;7.210;2023-07-24T20:01:51;6.38;;;5.82;;
11422;SDS011;5768;51.476;7.210;2023-07-24T20:06:54;7.78;;;6.93;;
11422;SDS011;5768;51.476;7.210;2023-07-24T20:11:58;13.90;;;9.88;;
11422;SDS011;5768;51.476;7.210;2023-07-24T20:17:00;14.18;;;12.90;;
11422;SDS011;5768;51.476;7.210;2023-07-24T20:22:02;15.90;;;14.70;;
11422;SDS011;5768;51.476;7.210;2023-07-24T20:27:06;18.27;;;16.77;;
11422;SDS011;5768;51.476;7.210;2023-07-24T20:32:09;18.17;;;16.67;;
11422;SDS011;5768;51.476;7.210;2023-07-24T20:37:12;15.70;;;14.43;;
11422;SDS011;5768;51.476;7.210;2023-07-24T20:42:16;16.48;;;15.18;;
11422;SDS011;5768;51.476;7.210;2023-07-24T20:47:18;15.40;;;14.07;;
11422;SDS011;5768;51.476;7.210;2023-07-24T20:52:21;14.25;;;13.15;;
11422;SDS011;5768;51.476;7.210;2023-07-24T20:57:24;13.55;;;12.48;;
11422;SDS011;5768;51.476;7.210;2023-07-24T21:02:27;10.32;;;9.40;;
11422;SDS011;5768;51.476;7.210;2023-07-24T21:07:29;8.70;;;7.90;;
11422;SDS011;5768;51.476;7.210;2023-07-24T21:12:32;7.30;;;6.60;;
11422;SDS011;5768;51.476;7.210;2023-07-24T21:17:35;5.93;;;5.30;;
11422;SDS011;5768;51.476;7.210;2023-07-24T21:22:38;5.22;;;4.55;;
11422;SDS011;5768;51.476;7.210;2023-07-24T21:27:41;8.15;;;4.57;;
11422;SDS011;5768;51.476;7.210;2023-07-24T21:32:44;6.47;;;4.20;;
11422;SDS011;5768;51.476;7.210;2023-07-24T21:37:46;7.68;;;4.78;;
11422;SDS011;5768;51.476;7.210;2023-07-24T21:42:49;6.40;;;4.68;;
11422;SDS011;5768;51.476;7.210;2023-07-24T21:47:52;6.75;;;4.18;;
11422;SDS011;5768;51.476;7.210;2023-07-24T21:52:54;3.53;;;3.13;;
11422;SDS011;5768;51.476;7.210;2023-07-24T21:57:57;4.18;;;2.83;;
11422;SDS011;5768;51.476;7.210;2023-07-24T22:03:00;5.35;;;2.63;;
11422;SDS011;5768;51.476;7.210;2023-07-24T22:08:02;4.00;;;2.22;;
11422;SDS011;5768;51.476;7.210;2023-07-24T22:13:06;2.70;;;2.35;;
11422;SDS011;5768;51.476;7.210;2023-07-24T22:18:08;5.55;;;2.20;;
11422;SDS011;5768;51.476;7.210;2023-07-24T22:23:11;3.70;;;2.17;;
11422;SDS011;5768;51.476;7.210;2023-07-24T22:28:14;2.40;;;2.20;;
11422;SDS011;5768;51.476;7.210;2023-07-24T22:33:17;3.08;;;2.20;;
11422;SDS011;5768;51.476;7.210;2023-07-24T22:38:19;2.80;;;2.53;;
11422;SDS011;5768;51.476;7.210;2023-07-24T22:43:22;4.60;;;2.38;;
11422;SDS011;5768;51.476;7.210;2023-07-24T22:48:25;4.10;;;2.80;;
11422;SDS011;5768;51.476;7.210;2023-07-24T22:53:27;6.35;;;3.25;;
11422;SDS011;5768;51.476;7.210;2023-07-24T22:58:34;4.53;;;2.80;;
11422;SDS011;5768;51.476;7.210;2023-07-24T23:04:18;3.78;;;3.03;;
11422;SDS011;5768;51.476;7.210;2023-07-24T23:15:02;12.10;;;2.58;;
11422;SDS011;5768;51.476;7.210;2023-07-24T23:20:06;3.88;;;2.20;;
11422;SDS011;5768;51.476;7.210;2023-07-24T23:25:09;4.90;;;2.30;;
11422;SDS011;5768;51.476;7.210;2023-07-24T23:30:13;6.63;;;3.10;;
11422;SDS011;5768;51.476;7.210;2023-07-24T23:35:15;5.13;;;2.80;;
11422;SDS011;5768;51.476;7.210;2023-07-24T23:40:17;6.65;;;2.97;;
11422;SDS011;5768;51.476;7.210;2023-07-24T23:45:20;5.45;;;2.33;;
11422;SDS011;5768;51.476;7.210;2023-07-24T23:50:22;4.00;;;2.80;;
11422;SDS011;5768;51.476;7.210;2023-07-24T23:55:25;6.03;;;3.00;;
